createdAt,value
2019-03-19T00:00:14.315Z,1014.05
2019-03-19T00:00:55.472Z,1014.04
2019-03-19T00:01:36.092Z,1014.11
2019-03-19T00:02:16.662Z,1014.05
2019-03-19T00:02:57.232Z,1014.1
2019-03-19T00:03:37.802Z,1014.04
2019-03-19T00:04:18.381Z,1014.04
2019-03-19T00:04:58.971Z,1014.04
2019-03-19T00:05:39.520Z,1014.02
2019-03-19T00:06:20.109Z,1014.09
2019-03-19T00:07:00.670Z,1014.04
2019-03-19T00:07:41.230Z,1014.05
2019-03-19T00:08:21.838Z,1014.05
2019-03-19T00:09:02.406Z,1014.04
2019-03-19T00:09:43.014Z,1014.03
2019-03-19T00:10:23.566Z,1014.01
2019-03-19T00:11:04.204Z,1014.02
2019-03-19T00:11:44.761Z,1014.03
2019-03-19T00:12:25.323Z,1014.02
2019-03-19T00:13:05.894Z,1014.06
2019-03-19T00:13:46.439Z,1014.02
2019-03-19T00:14:27.024Z,1014.01
2019-03-19T00:15:07.570Z,1014.06
2019-03-19T00:15:48.130Z,1014.04
2019-03-19T00:16:28.682Z,1014.06
2019-03-19T00:17:09.240Z,1014.03
2019-03-19T00:17:49.799Z,1014.03
2019-03-19T00:18:30.372Z,1014.04
2019-03-19T00:19:10.933Z,1014.03
2019-03-19T00:19:51.502Z,1014.04
2019-03-19T00:20:32.057Z,1014.06
2019-03-19T00:21:12.639Z,1014.08
2019-03-19T00:21:53.203Z,1014.1
2019-03-19T00:22:33.772Z,1014.1
2019-03-19T00:23:14.330Z,1014.11
2019-03-19T00:23:54.904Z,1014.11
2019-03-19T00:24:35.493Z,1014.15
2019-03-19T00:25:16.034Z,1014.17
2019-03-19T00:25:56.595Z,1014.13
2019-03-19T00:26:37.154Z,1014.12
2019-03-19T00:27:17.729Z,1014.16
2019-03-19T00:27:58.287Z,1014.12
2019-03-19T00:28:39.118Z,1014.11
2019-03-19T00:29:19.411Z,1014.12
2019-03-19T00:29:59.973Z,1014.12
2019-03-19T00:30:40.538Z,1014.14
2019-03-19T00:31:21.104Z,1014.16
2019-03-19T00:32:01.669Z,1014.2
2019-03-19T00:32:42.219Z,1014.21
2019-03-19T00:33:22.786Z,1014.18
2019-03-19T00:34:03.344Z,1014.16
2019-03-19T00:34:43.896Z,1014.24
2019-03-19T00:35:24.456Z,1014.24
2019-03-19T00:36:05.029Z,1014.24
2019-03-19T00:36:45.597Z,1014.25
2019-03-19T00:37:26.162Z,1014.24
2019-03-19T00:38:06.722Z,1014.23
2019-03-19T00:38:47.288Z,1014.23
2019-03-19T00:39:27.853Z,1014.29
2019-03-19T00:40:08.415Z,1014.17
2019-03-19T00:40:48.994Z,1014.24
2019-03-19T00:41:29.558Z,1014.24
2019-03-19T00:42:10.127Z,1014.3
2019-03-19T00:42:50.692Z,1014.23
2019-03-19T00:43:31.252Z,1014.25
2019-03-19T00:44:11.816Z,1014.28
2019-03-19T00:44:52.376Z,1014.23
2019-03-19T00:45:32.943Z,1014.21
2019-03-19T00:46:13.508Z,1014.25
2019-03-19T00:46:54.109Z,1014.3
2019-03-19T00:47:34.669Z,1014.28
2019-03-19T00:48:15.224Z,1014.25
2019-03-19T00:48:55.790Z,1014.28
2019-03-19T00:49:36.363Z,1014.25
2019-03-19T00:50:16.927Z,1014.25
2019-03-19T00:50:57.497Z,1014.29
2019-03-19T00:51:38.059Z,1014.29
2019-03-19T00:52:18.624Z,1014.28
2019-03-19T00:52:59.188Z,1014.23
2019-03-19T00:53:39.756Z,1014.26
2019-03-19T00:54:20.312Z,1014.21
2019-03-19T00:55:00.866Z,1014.2
2019-03-19T00:55:41.433Z,1014.18
2019-03-19T00:56:21.992Z,1014.2
2019-03-19T00:57:02.544Z,1014.17
2019-03-19T00:57:43.112Z,1014.21
2019-03-19T00:58:23.670Z,1014.2
2019-03-19T00:59:04.221Z,1014.2
2019-03-19T00:59:44.784Z,1014.15
2019-03-19T01:00:25.350Z,1014.16
2019-03-19T01:01:05.903Z,1014.2
2019-03-19T01:01:46.454Z,1014.16
2019-03-19T01:02:27.010Z,1014.22
2019-03-19T01:03:07.633Z,1014.23
2019-03-19T01:03:48.203Z,1014.24
2019-03-19T01:04:28.762Z,1014.21
2019-03-19T01:05:09.324Z,1014.24
2019-03-19T01:05:49.887Z,1014.2
2019-03-19T01:06:30.444Z,1014.2
2019-03-19T01:07:11.006Z,1014.21
2019-03-19T01:07:51.594Z,1014.21
2019-03-19T01:08:32.154Z,1014.23
2019-03-19T01:09:12.751Z,1014.24
2019-03-19T01:09:53.350Z,1014.23
2019-03-19T01:10:33.920Z,1014.19
2019-03-19T01:11:14.475Z,1014.2
2019-03-19T01:11:55.046Z,1014.23
2019-03-19T01:12:35.605Z,1014.25
2019-03-19T01:13:16.162Z,1014.2
2019-03-19T01:13:56.741Z,1014.22
2019-03-19T01:14:37.311Z,1014.24
2019-03-19T01:15:17.869Z,1014.27
2019-03-19T01:15:58.427Z,1014.24
2019-03-19T01:16:39.006Z,1014.23
2019-03-19T01:17:19.563Z,1014.25
2019-03-19T01:18:00.120Z,1014.26
2019-03-19T01:18:40.674Z,1014.22
2019-03-19T01:19:21.240Z,1014.26
2019-03-19T01:20:01.809Z,1014.25
2019-03-19T01:20:42.389Z,1014.23
2019-03-19T01:21:22.931Z,1014.27
2019-03-19T01:22:03.518Z,1014.26
2019-03-19T01:22:44.075Z,1014.26
2019-03-19T01:23:24.627Z,1014.32
2019-03-19T01:24:05.185Z,1014.36
2019-03-19T01:24:45.744Z,1014.33
2019-03-19T01:25:26.313Z,1014.32
2019-03-19T01:26:06.870Z,1014.31
2019-03-19T01:26:47.428Z,1014.33
2019-03-19T01:27:27.986Z,1014.34
2019-03-19T01:28:08.549Z,1014.36
2019-03-19T01:28:49.105Z,1014.28
2019-03-19T01:29:29.664Z,1014.3
2019-03-19T01:30:10.231Z,1014.4
2019-03-19T01:30:50.801Z,1014.36
2019-03-19T01:31:31.361Z,1014.37
2019-03-19T01:32:11.954Z,1014.32
2019-03-19T01:32:52.549Z,1014.36
2019-03-19T01:33:33.112Z,1014.35
2019-03-19T01:34:13.711Z,1014.41
2019-03-19T01:34:54.273Z,1014.35
2019-03-19T01:35:34.836Z,1014.41
2019-03-19T01:36:15.398Z,1014.4
2019-03-19T01:36:55.962Z,1014.42
2019-03-19T01:37:36.532Z,1014.41
2019-03-19T01:38:17.095Z,1014.5
2019-03-19T01:38:57.656Z,1014.5
2019-03-19T01:39:38.215Z,1014.48
2019-03-19T01:40:18.772Z,1014.45
2019-03-19T01:40:59.355Z,1014.45
2019-03-19T01:41:39.939Z,1014.51
2019-03-19T01:42:20.504Z,1014.46
2019-03-19T01:43:01.074Z,1014.46
2019-03-19T01:43:41.635Z,1014.49
2019-03-19T01:44:22.198Z,1014.49
2019-03-19T01:45:02.782Z,1014.51
2019-03-19T01:45:43.351Z,1014.47
2019-03-19T01:46:23.905Z,1014.51
2019-03-19T01:47:04.468Z,1014.54
2019-03-19T01:47:45.021Z,1014.5
2019-03-19T01:48:25.587Z,1014.56
2019-03-19T01:49:06.151Z,1014.55
2019-03-19T01:49:47.552Z,1014.6
2019-03-19T01:50:28.088Z,1014.59
2019-03-19T01:51:08.646Z,1014.57
2019-03-19T01:51:49.211Z,1014.52
2019-03-19T01:52:29.768Z,1014.56
2019-03-19T01:53:10.331Z,1014.55
2019-03-19T01:53:50.903Z,1014.61
2019-03-19T01:54:31.464Z,1014.62
2019-03-19T01:55:12.089Z,1014.67
2019-03-19T01:55:52.573Z,1014.69
2019-03-19T01:56:33.789Z,1014.68
2019-03-19T01:57:14.342Z,1014.66
2019-03-19T01:57:54.914Z,1014.7
2019-03-19T01:58:35.472Z,1014.66
2019-03-19T01:59:16.034Z,1014.69
2019-03-19T01:59:56.591Z,1014.71
2019-03-19T02:00:37.161Z,1014.68
2019-03-19T02:01:17.773Z,1014.75
2019-03-19T02:01:58.334Z,1014.74
2019-03-19T02:02:39.019Z,1014.75
2019-03-19T02:03:19.707Z,1014.75
2019-03-19T02:04:00.306Z,1014.77
2019-03-19T02:04:40.862Z,1014.75
2019-03-19T02:05:21.417Z,1014.76
2019-03-19T02:06:01.986Z,1014.72
2019-03-19T02:06:42.555Z,1014.77
2019-03-19T02:07:23.120Z,1014.73
2019-03-19T02:08:03.682Z,1014.73
2019-03-19T02:08:44.245Z,1014.78
2019-03-19T02:09:24.805Z,1014.81
2019-03-19T02:10:05.365Z,1014.78
2019-03-19T02:10:45.931Z,1014.78
2019-03-19T02:11:26.491Z,1014.81
2019-03-19T02:12:07.045Z,1014.79
2019-03-19T02:12:47.616Z,1014.78
2019-03-19T02:13:28.186Z,1014.79
2019-03-19T02:14:08.747Z,1014.76
2019-03-19T02:14:49.331Z,1014.79
2019-03-19T02:15:29.888Z,1014.8
2019-03-19T02:16:10.440Z,1014.83
2019-03-19T02:16:51.059Z,1014.83
2019-03-19T02:17:31.579Z,1014.82
2019-03-19T02:18:12.155Z,1014.85
2019-03-19T02:18:52.726Z,1014.86
2019-03-19T02:19:33.313Z,1014.9
2019-03-19T02:20:13.872Z,1014.84
2019-03-19T02:20:54.437Z,1014.85
2019-03-19T02:21:34.999Z,1014.9
2019-03-19T02:22:15.561Z,1014.92
2019-03-19T02:22:56.180Z,1014.92
2019-03-19T02:23:36.692Z,1014.95
2019-03-19T02:24:17.267Z,1014.92
2019-03-19T02:24:57.827Z,1014.89
2019-03-19T02:25:38.426Z,1014.95
2019-03-19T02:26:18.975Z,1014.88
2019-03-19T02:26:59.538Z,1014.86
2019-03-19T02:27:40.106Z,1014.94
2019-03-19T02:28:20.667Z,1014.95
2019-03-19T02:29:01.219Z,1014.93
2019-03-19T02:29:41.793Z,1014.95
2019-03-19T02:30:23.123Z,1015
2019-03-19T02:31:03.698Z,1015.02
2019-03-19T02:31:44.242Z,1015.01
2019-03-19T02:32:24.819Z,1015.07
2019-03-19T02:33:05.363Z,1015.1
2019-03-19T02:33:45.923Z,1015.07
2019-03-19T02:34:26.470Z,1015.07
2019-03-19T02:35:07.043Z,1015.09
2019-03-19T02:35:47.607Z,1015.09
2019-03-19T02:36:28.171Z,1015.09
2019-03-19T02:37:08.733Z,1015.08
2019-03-19T02:37:49.301Z,1015.09
2019-03-19T02:38:29.867Z,1015.1
2019-03-19T02:39:10.424Z,1015.1
2019-03-19T02:39:50.990Z,1015.12
2019-03-19T02:40:31.566Z,1015.09
2019-03-19T02:41:12.135Z,1015.09
2019-03-19T02:41:52.731Z,1015.11
2019-03-19T02:42:33.275Z,1015.19
2019-03-19T02:43:13.847Z,1015.16
2019-03-19T02:43:54.397Z,1015.21
2019-03-19T02:44:34.955Z,1015.18
2019-03-19T02:45:15.522Z,1015.18
2019-03-19T02:45:56.088Z,1015.16
2019-03-19T02:46:36.653Z,1015.14
2019-03-19T02:47:17.214Z,1015.14
2019-03-19T02:47:57.774Z,1015.18
2019-03-19T02:48:38.340Z,1015.14
2019-03-19T02:49:18.884Z,1015.18
2019-03-19T02:49:59.486Z,1015.2
2019-03-19T02:50:40.039Z,1015.18
2019-03-19T02:51:20.609Z,1015.14
2019-03-19T02:52:01.164Z,1015.17
2019-03-19T02:52:41.736Z,1015.19
2019-03-19T02:53:22.306Z,1015.22
2019-03-19T02:54:02.877Z,1015.2
2019-03-19T02:54:43.438Z,1015.22
2019-03-19T02:55:24.048Z,1015.22
2019-03-19T02:56:05.329Z,1015.26
2019-03-19T02:56:45.878Z,1015.26
2019-03-19T02:57:26.439Z,1015.26
2019-03-19T02:58:06.984Z,1015.29
2019-03-19T02:58:47.558Z,1015.27
2019-03-19T02:59:28.112Z,1015.26
2019-03-19T03:00:08.690Z,1015.25
2019-03-19T03:00:49.250Z,1015.28
2019-03-19T03:01:29.825Z,1015.27
2019-03-19T03:02:10.392Z,1015.33
2019-03-19T03:02:50.951Z,1015.3
2019-03-19T03:03:31.557Z,1015.33
2019-03-19T03:04:12.112Z,1015.27
2019-03-19T03:04:52.711Z,1015.33
2019-03-19T03:05:33.242Z,1015.32
2019-03-19T03:06:13.793Z,1015.35
2019-03-19T03:06:54.381Z,1015.34
2019-03-19T03:07:34.963Z,1015.33
2019-03-19T03:08:15.525Z,1015.34
2019-03-19T03:08:56.089Z,1015.34
2019-03-19T03:09:36.688Z,1015.32
2019-03-19T03:10:17.252Z,1015.32
2019-03-19T03:10:57.815Z,1015.29
2019-03-19T03:11:38.427Z,1015.31
2019-03-19T03:12:18.926Z,1015.33
2019-03-19T03:12:59.502Z,1015.31
2019-03-19T03:13:40.052Z,1015.29
2019-03-19T03:14:20.617Z,1015.35
2019-03-19T03:15:01.179Z,1015.3
2019-03-19T03:15:41.734Z,1015.34
2019-03-19T03:16:22.293Z,1015.34
2019-03-19T03:17:02.862Z,1015.37
2019-03-19T03:17:43.433Z,1015.37
2019-03-19T03:18:23.995Z,1015.34
2019-03-19T03:19:04.547Z,1015.36
2019-03-19T03:19:45.085Z,1015.35
2019-03-19T03:20:25.657Z,1015.35
2019-03-19T03:21:06.219Z,1015.34
2019-03-19T03:21:46.777Z,1015.4
2019-03-19T03:22:27.372Z,1015.35
2019-03-19T03:23:07.910Z,1015.39
2019-03-19T03:23:48.490Z,1015.37
2019-03-19T03:24:29.063Z,1015.38
2019-03-19T03:25:09.662Z,1015.4
2019-03-19T03:25:50.222Z,1015.41
2019-03-19T03:26:30.791Z,1015.4
2019-03-19T03:27:11.337Z,1015.44
2019-03-19T03:27:51.896Z,1015.43
2019-03-19T03:28:32.444Z,1015.43
2019-03-19T03:29:13.004Z,1015.45
2019-03-19T03:29:53.560Z,1015.48
2019-03-19T03:30:34.123Z,1015.45
2019-03-19T03:31:14.677Z,1015.45
2019-03-19T03:31:55.227Z,1015.49
2019-03-19T03:32:35.791Z,1015.48
2019-03-19T03:33:16.363Z,1015.51
2019-03-19T03:33:56.917Z,1015.5
2019-03-19T03:34:37.484Z,1015.5
2019-03-19T03:35:18.038Z,1015.48
2019-03-19T03:35:58.608Z,1015.49
2019-03-19T03:36:39.162Z,1015.48
2019-03-19T03:37:19.720Z,1015.46
2019-03-19T03:38:00.283Z,1015.5
2019-03-19T03:38:40.838Z,1015.51
2019-03-19T03:39:21.428Z,1015.52
2019-03-19T03:40:01.991Z,1015.5
2019-03-19T03:40:42.639Z,1015.51
2019-03-19T03:41:23.101Z,1015.56
2019-03-19T03:42:03.684Z,1015.58
2019-03-19T03:42:44.223Z,1015.59
2019-03-19T03:43:24.766Z,1015.58
2019-03-19T03:44:05.320Z,1015.58
2019-03-19T03:44:45.883Z,1015.59
2019-03-19T03:45:26.455Z,1015.64
2019-03-19T03:46:07.041Z,1015.64
2019-03-19T03:46:47.590Z,1015.63
2019-03-19T03:47:28.148Z,1015.57
2019-03-19T03:48:08.720Z,1015.61
2019-03-19T03:48:49.288Z,1015.62
2019-03-19T03:49:29.870Z,1015.6
2019-03-19T03:50:10.426Z,1015.61
2019-03-19T03:50:50.995Z,1015.64
2019-03-19T03:51:31.562Z,1015.68
2019-03-19T03:52:12.126Z,1015.69
2019-03-19T03:52:52.706Z,1015.68
2019-03-19T03:53:33.289Z,1015.67
2019-03-19T03:54:13.875Z,1015.69
2019-03-19T03:54:54.455Z,1015.69
2019-03-19T03:55:35.024Z,1015.68
2019-03-19T03:56:16.054Z,1015.73
2019-03-19T03:57:02.142Z,1015.74
2019-03-19T03:57:37.210Z,1015.76
2019-03-19T03:58:17.750Z,1015.75
2019-03-19T03:59:00.709Z,1015.72
2019-03-19T03:59:38.898Z,1015.73
2019-03-19T04:00:19.446Z,1015.78
2019-03-19T04:01:00.004Z,1015.82
2019-03-19T04:01:40.584Z,1015.8
2019-03-19T04:02:21.194Z,1015.82
2019-03-19T04:03:01.710Z,1015.83
2019-03-19T04:03:42.266Z,1015.89
2019-03-19T04:04:22.832Z,1015.84
2019-03-19T04:05:03.386Z,1015.89
2019-03-19T04:05:43.950Z,1015.88
2019-03-19T04:06:24.500Z,1015.86
2019-03-19T04:07:05.069Z,1015.94
2019-03-19T04:07:45.635Z,1015.9
2019-03-19T04:08:26.219Z,1015.9
2019-03-19T04:09:09.211Z,1015.95
2019-03-19T04:09:47.333Z,1015.98
2019-03-19T04:10:27.917Z,1016
2019-03-19T04:11:08.491Z,1015.98
2019-03-19T04:11:49.073Z,1015.99
2019-03-19T04:12:29.627Z,1016.06
2019-03-19T04:13:10.208Z,1016.01
2019-03-19T04:13:50.770Z,1016.03
2019-03-19T04:14:31.334Z,1016.08
2019-03-19T04:15:11.893Z,1016.04
2019-03-19T04:15:52.455Z,1016.09
2019-03-19T04:16:33.024Z,1016.12
2019-03-19T04:17:13.586Z,1016.08
2019-03-19T04:17:54.146Z,1016.15
2019-03-19T04:18:34.710Z,1016.12
2019-03-19T04:19:15.266Z,1016.13
2019-03-19T04:19:55.836Z,1016.18
2019-03-19T04:20:36.408Z,1016.18
2019-03-19T04:21:16.974Z,1016.16
2019-03-19T04:21:57.539Z,1016.16
2019-03-19T04:22:38.097Z,1016.2
2019-03-19T04:23:18.671Z,1016.2
2019-03-19T04:23:59.230Z,1016.21
2019-03-19T04:24:39.795Z,1016.27
2019-03-19T04:25:20.360Z,1016.26
2019-03-19T04:26:00.949Z,1016.27
2019-03-19T04:26:41.501Z,1016.29
2019-03-19T04:27:22.092Z,1016.3
2019-03-19T04:28:02.652Z,1016.29
2019-03-19T04:28:43.212Z,1016.26
2019-03-19T04:29:23.751Z,1016.28
2019-03-19T04:30:04.322Z,1016.25
2019-03-19T04:30:44.874Z,1016.27
2019-03-19T04:31:25.431Z,1016.24
2019-03-19T04:32:05.980Z,1016.3
2019-03-19T04:32:46.529Z,1016.29
2019-03-19T04:33:27.080Z,1016.29
2019-03-19T04:34:07.642Z,1016.27
2019-03-19T04:34:48.205Z,1016.28
2019-03-19T04:35:28.780Z,1016.23
2019-03-19T04:36:09.335Z,1016.26
2019-03-19T04:36:49.906Z,1016.28
2019-03-19T04:37:30.480Z,1016.25
2019-03-19T04:38:11.065Z,1016.3
2019-03-19T04:38:51.606Z,1016.28
2019-03-19T04:39:32.175Z,1016.32
2019-03-19T04:40:12.756Z,1016.31
2019-03-19T04:40:53.312Z,1016.28
2019-03-19T04:41:33.914Z,1016.31
2019-03-19T04:42:14.477Z,1016.33
2019-03-19T04:42:55.061Z,1016.36
2019-03-19T04:43:35.653Z,1016.32
2019-03-19T04:44:16.207Z,1016.31
2019-03-19T04:44:56.777Z,1016.36
2019-03-19T04:45:37.377Z,1016.35
2019-03-19T04:46:18.029Z,1016.37
2019-03-19T04:46:58.591Z,1016.4
2019-03-19T04:47:39.184Z,1016.38
2019-03-19T04:48:19.745Z,1016.4
2019-03-19T04:49:00.314Z,1016.4
2019-03-19T04:49:40.935Z,1016.41
2019-03-19T04:50:21.502Z,1016.39
2019-03-19T04:51:02.087Z,1016.42
2019-03-19T04:51:42.730Z,1016.41
2019-03-19T04:52:23.292Z,1016.43
2019-03-19T04:53:03.846Z,1016.43
2019-03-19T04:53:44.415Z,1016.46
2019-03-19T04:54:24.991Z,1016.43
2019-03-19T04:55:05.610Z,1016.44
2019-03-19T04:55:46.174Z,1016.4
2019-03-19T04:56:26.766Z,1016.44
2019-03-19T04:57:07.346Z,1016.41
2019-03-19T04:57:47.929Z,1016.43
2019-03-19T04:58:28.487Z,1016.42
2019-03-19T04:59:09.041Z,1016.5
2019-03-19T04:59:49.600Z,1016.49
2019-03-19T05:00:30.167Z,1016.47
2019-03-19T05:01:10.717Z,1016.51
2019-03-19T05:01:51.298Z,1016.47
2019-03-19T05:02:31.854Z,1016.5
2019-03-19T05:03:12.487Z,1016.47
2019-03-19T05:03:53.109Z,1016.52
2019-03-19T05:04:33.678Z,1016.47
2019-03-19T05:05:14.244Z,1016.52
2019-03-19T05:05:54.789Z,1016.51
2019-03-19T05:06:35.360Z,1016.56
2019-03-19T05:07:15.925Z,1016.53
2019-03-19T05:07:56.508Z,1016.53
2019-03-19T05:08:37.258Z,1016.51
2019-03-19T05:09:17.824Z,1016.54
2019-03-19T05:09:58.370Z,1016.56
2019-03-19T05:10:38.984Z,1016.56
2019-03-19T05:11:19.560Z,1016.5
2019-03-19T05:12:00.143Z,1016.55
2019-03-19T05:12:40.734Z,1016.57
2019-03-19T05:13:21.297Z,1016.6
2019-03-19T05:14:01.880Z,1016.67
2019-03-19T05:14:42.424Z,1016.67
2019-03-19T05:15:22.978Z,1016.69
2019-03-19T05:16:03.600Z,1016.73
2019-03-19T05:16:44.200Z,1016.73
2019-03-19T05:17:24.773Z,1016.76
2019-03-19T05:18:05.353Z,1016.79
2019-03-19T05:18:45.967Z,1016.83
2019-03-19T05:19:26.511Z,1016.88
2019-03-19T05:20:07.073Z,1016.84
2019-03-19T05:20:47.621Z,1016.88
2019-03-19T05:21:28.193Z,1016.9
2019-03-19T05:22:08.783Z,1016.91
2019-03-19T05:22:49.343Z,1016.91
2019-03-19T05:23:29.900Z,1016.87
2019-03-19T05:24:10.445Z,1016.91
2019-03-19T05:24:51.028Z,1016.95
2019-03-19T05:25:32.492Z,1016.97
2019-03-19T05:26:13.063Z,1016.99
2019-03-19T05:26:53.624Z,1017.02
2019-03-19T05:27:37.451Z,1017.01
2019-03-19T05:28:14.747Z,1016.97
2019-03-19T05:28:55.315Z,1017.04
2019-03-19T05:29:35.886Z,1017.06
2019-03-19T05:30:16.445Z,1017.05
2019-03-19T05:30:57.011Z,1017.05
2019-03-19T05:31:37.561Z,1017.1
2019-03-19T05:32:18.120Z,1017.09
2019-03-19T05:32:58.683Z,1017.14
2019-03-19T05:33:39.253Z,1017.13
2019-03-19T05:34:19.875Z,1017.09
2019-03-19T05:35:00.658Z,1017.16
2019-03-19T05:35:41.591Z,1017.15
2019-03-19T05:36:22.497Z,1017.12
2019-03-19T05:37:03.517Z,1017.16
2019-03-19T05:37:44.379Z,1017.2
2019-03-19T05:38:25.349Z,1017.21
2019-03-19T05:39:06.171Z,1017.23
2019-03-19T05:39:46.914Z,1017.23
2019-03-19T05:40:27.790Z,1017.26
2019-03-19T05:41:08.737Z,1017.24
2019-03-19T05:41:49.782Z,1017.22
2019-03-19T05:42:30.741Z,1017.21
2019-03-19T05:43:11.699Z,1017.21
2019-03-19T05:43:52.629Z,1017.21
2019-03-19T05:44:33.614Z,1017.26
2019-03-19T05:45:14.707Z,1017.22
2019-03-19T05:45:55.689Z,1017.26
2019-03-19T05:46:36.681Z,1017.26
2019-03-19T05:47:17.821Z,1017.29
2019-03-19T05:47:58.918Z,1017.31
2019-03-19T05:48:39.994Z,1017.32
2019-03-19T05:49:21.086Z,1017.3
2019-03-19T05:50:02.109Z,1017.36
2019-03-19T05:50:43.214Z,1017.34
2019-03-19T05:51:24.177Z,1017.35
2019-03-19T05:52:05.101Z,1017.33
2019-03-19T05:52:48.253Z,1017.35
2019-03-19T05:53:27.217Z,1017.39
2019-03-19T05:54:08.130Z,1017.38
2019-03-19T05:54:48.996Z,1017.43
2019-03-19T05:55:29.750Z,1017.4
2019-03-19T05:56:10.642Z,1017.44
2019-03-19T05:56:51.590Z,1017.46
2019-03-19T05:57:32.439Z,1017.47
2019-03-19T05:58:13.368Z,1017.49
2019-03-19T05:58:54.293Z,1017.48
2019-03-19T05:59:35.090Z,1017.45
2019-03-19T06:00:16.101Z,1017.5
2019-03-19T06:00:56.940Z,1017.51
2019-03-19T06:01:37.722Z,1017.51
2019-03-19T06:02:18.470Z,1017.54
2019-03-19T06:02:59.189Z,1017.52
2019-03-19T06:03:40.115Z,1017.54
2019-03-19T06:04:21.229Z,1017.55
2019-03-19T06:05:02.138Z,1017.57
2019-03-19T06:05:43.289Z,1017.56
2019-03-19T06:06:24.127Z,1017.6
2019-03-19T06:07:05.021Z,1017.56
2019-03-19T06:07:46.072Z,1017.64
2019-03-19T06:08:27.008Z,1017.63
2019-03-19T06:09:08.068Z,1017.61
2019-03-19T06:09:49.225Z,1017.64
2019-03-19T06:10:30.186Z,1017.63
2019-03-19T06:11:11.220Z,1017.65
2019-03-19T06:11:52.357Z,1017.62
2019-03-19T06:12:33.394Z,1017.64
2019-03-19T06:13:14.329Z,1017.67
2019-03-19T06:13:55.327Z,1017.67
2019-03-19T06:14:36.199Z,1017.66
2019-03-19T06:15:16.990Z,1017.65
2019-03-19T06:15:57.560Z,1017.65
2019-03-19T06:16:38.144Z,1017.66
2019-03-19T06:17:18.698Z,1017.64
2019-03-19T06:17:59.263Z,1017.71
2019-03-19T06:18:39.818Z,1017.69
2019-03-19T06:19:20.388Z,1017.69
2019-03-19T06:20:00.947Z,1017.67
2019-03-19T06:20:41.506Z,1017.67
2019-03-19T06:21:22.168Z,1017.72
2019-03-19T06:22:02.791Z,1017.75
2019-03-19T06:22:43.371Z,1017.76
2019-03-19T06:23:23.929Z,1017.77
2019-03-19T06:24:04.488Z,1017.74
2019-03-19T06:24:45.040Z,1017.79
2019-03-19T06:25:25.603Z,1017.81
2019-03-19T06:26:06.169Z,1017.78
2019-03-19T06:26:46.758Z,1017.82
2019-03-19T06:27:27.310Z,1017.84
2019-03-19T06:28:07.860Z,1017.86
2019-03-19T06:28:48.427Z,1017.85
2019-03-19T06:29:29.031Z,1017.83
2019-03-19T06:30:09.619Z,1017.87
2019-03-19T06:30:50.211Z,1017.85
2019-03-19T06:31:30.828Z,1017.8
2019-03-19T06:32:11.433Z,1017.92
2019-03-19T06:32:52.006Z,1017.85
2019-03-19T06:33:32.569Z,1017.83
2019-03-19T06:34:13.145Z,1017.91
2019-03-19T06:34:53.791Z,1017.89
2019-03-19T06:35:34.381Z,1017.9
2019-03-19T06:36:14.957Z,1017.87
2019-03-19T06:36:55.538Z,1017.89
2019-03-19T06:37:36.093Z,1017.87
2019-03-19T06:38:16.659Z,1017.88
2019-03-19T06:38:57.239Z,1017.93
2019-03-19T06:39:37.806Z,1017.92
2019-03-19T06:40:18.443Z,1017.93
2019-03-19T06:40:59.009Z,1017.93
2019-03-19T06:41:39.556Z,1017.93
2019-03-19T06:42:20.127Z,1017.94
2019-03-19T06:43:00.769Z,1017.95
2019-03-19T06:43:41.345Z,1017.94
2019-03-19T06:44:21.935Z,1017.95
2019-03-19T06:45:02.574Z,1017.92
2019-03-19T06:45:43.144Z,1017.93
2019-03-19T06:46:23.716Z,1017.9
2019-03-19T06:47:04.276Z,1017.98
2019-03-19T06:47:45.147Z,1017.96
2019-03-19T06:48:25.715Z,1017.95
2019-03-19T06:49:06.593Z,1017.94
2019-03-19T06:49:47.253Z,1017.97
2019-03-19T06:50:28.268Z,1017.97
2019-03-19T06:51:08.545Z,1017.96
2019-03-19T06:51:49.105Z,1017.98
2019-03-19T06:52:29.677Z,1017.95
2019-03-19T06:53:10.232Z,1017.96
2019-03-19T06:53:50.926Z,1017.94
2019-03-19T06:54:31.528Z,1017.95
2019-03-19T06:55:12.123Z,1017.98
2019-03-19T06:55:52.777Z,1017.96
2019-03-19T06:56:33.376Z,1017.95
2019-03-19T06:57:13.976Z,1018.01
2019-03-19T06:57:54.616Z,1017.98
2019-03-19T06:58:35.160Z,1018
2019-03-19T06:59:15.857Z,1018.01
2019-03-19T06:59:56.549Z,1018.02
2019-03-19T07:00:37.183Z,1017.99
2019-03-19T07:01:17.745Z,1017.98
2019-03-19T07:01:58.320Z,1017.99
2019-03-19T07:02:38.912Z,1018.02
2019-03-19T07:03:19.521Z,1018.04
2019-03-19T07:04:00.101Z,1018.09
2019-03-19T07:04:40.677Z,1018.06
2019-03-19T07:05:21.354Z,1018.11
2019-03-19T07:06:01.970Z,1018.1
2019-03-19T07:06:42.665Z,1018.09
2019-03-19T07:07:23.460Z,1018.12
2019-03-19T07:08:04.074Z,1018.13
2019-03-19T07:08:44.860Z,1018.14
2019-03-19T07:09:25.577Z,1018.14
2019-03-19T07:10:06.129Z,1018.22
2019-03-19T07:10:46.835Z,1018.2
2019-03-19T07:11:27.376Z,1018.26
2019-03-19T07:12:07.921Z,1018.28
2019-03-19T07:12:48.536Z,1018.2
2019-03-19T07:13:29.092Z,1018.2
2019-03-19T07:14:09.714Z,1018.22
2019-03-19T07:14:50.299Z,1018.27
2019-03-19T07:15:31.039Z,1018.24
2019-03-19T07:16:11.737Z,1018.25
2019-03-19T07:16:52.383Z,1018.28
2019-03-19T07:17:33.132Z,1018.27
2019-03-19T07:18:13.835Z,1018.25
2019-03-19T07:18:54.683Z,1018.24
2019-03-19T07:19:35.494Z,1018.27
2019-03-19T07:20:16.248Z,1018.29
2019-03-19T07:20:56.966Z,1018.32
2019-03-19T07:21:37.608Z,1018.3
2019-03-19T07:22:18.248Z,1018.3
2019-03-19T07:22:58.850Z,1018.28
2019-03-19T07:23:39.639Z,1018.34
2019-03-19T07:24:20.218Z,1018.29
2019-03-19T07:25:00.862Z,1018.28
2019-03-19T07:25:41.466Z,1018.31
2019-03-19T07:26:22.641Z,1018.32
2019-03-19T07:27:03.224Z,1018.33
2019-03-19T07:27:43.792Z,1018.32
2019-03-19T07:28:24.382Z,1018.32
2019-03-19T07:29:05.080Z,1018.38
2019-03-19T07:29:45.751Z,1018.34
2019-03-19T07:30:26.309Z,1018.36
2019-03-19T07:31:06.877Z,1018.31
2019-03-19T07:31:47.437Z,1018.36
2019-03-19T07:32:28.009Z,1018.38
2019-03-19T07:33:08.588Z,1018.37
2019-03-19T07:33:49.163Z,1018.38
2019-03-19T07:34:29.724Z,1018.41
2019-03-19T07:35:10.346Z,1018.39
2019-03-19T07:35:50.920Z,1018.41
2019-03-19T07:36:31.495Z,1018.35
2019-03-19T07:37:12.060Z,1018.44
2019-03-19T07:37:52.626Z,1018.44
2019-03-19T07:38:33.453Z,1018.47
2019-03-19T07:39:13.746Z,1018.47
2019-03-19T07:39:54.340Z,1018.46
2019-03-19T07:40:34.893Z,1018.49
2019-03-19T07:41:17.507Z,1018.5
2019-03-19T07:41:56.036Z,1018.66
2019-03-19T07:42:36.622Z,1018.61
2019-03-19T07:43:17.183Z,1018.62
2019-03-19T07:43:57.782Z,1018.6
2019-03-19T07:44:38.382Z,1018.61
2019-03-19T07:45:18.951Z,1018.6
2019-03-19T07:45:59.558Z,1018.64
2019-03-19T07:46:40.133Z,1018.58
2019-03-19T07:47:20.686Z,1018.63
2019-03-19T07:48:01.242Z,1018.61
2019-03-19T07:48:41.812Z,1018.61
2019-03-19T07:49:22.372Z,1018.64
2019-03-19T07:50:02.994Z,1018.66
2019-03-19T07:50:43.550Z,1018.67
2019-03-19T07:51:24.126Z,1018.68
2019-03-19T07:52:04.696Z,1018.72
2019-03-19T07:52:45.253Z,1018.76
2019-03-19T07:53:27.123Z,1018.75
2019-03-19T07:56:57.626Z,1018.93
2019-03-19T07:57:38.170Z,1018.93
2019-03-19T07:58:18.754Z,1018.99
2019-03-19T07:58:59.311Z,1018.97
2019-03-19T07:59:40.671Z,1018.91
2019-03-19T08:00:24.236Z,1018.9
2019-03-19T08:01:04.862Z,1018.91
2019-03-19T08:01:46.955Z,1018.88
2019-03-19T08:02:28.046Z,1018.88
2019-03-19T08:03:15.817Z,1018.87
2019-03-19T08:03:49.323Z,1018.88
2019-03-19T08:04:30.112Z,1018.92
2019-03-19T08:05:10.823Z,1018.91
2019-03-19T08:05:51.380Z,1018.94
2019-03-19T08:06:32.803Z,1018.98
2019-03-19T08:07:12.497Z,1018.99
2019-03-19T08:07:53.054Z,1018.99
2019-03-19T08:08:33.631Z,1019.02
2019-03-19T08:09:14.464Z,1019.03
2019-03-19T08:09:55.162Z,1018.99
2019-03-19T08:10:35.724Z,1019.03
2019-03-19T08:11:16.787Z,1019.03
2019-03-19T08:11:56.877Z,1019.06
2019-03-19T08:12:37.978Z,1019.09
2019-03-19T08:13:18.534Z,1019.12
2019-03-19T08:13:59.124Z,1019.12
2019-03-19T08:14:39.679Z,1019.1
2019-03-19T08:15:20.247Z,1019.22
2019-03-19T08:16:00.831Z,1019.21